Time;durP1;ratioP1;P1;durP2;ratioP2;P2;SDS_P1;SDS_P2;PMS_P1;PMS_P2;Temp;Humidity;BMP_temperature;BMP_pressure;BME280_temperature;BME280_humidity;BME280_pressure;Samples;Min_cycle;Max_cycle;Signal;HPM_P1;HPM_P2
2022/06/24 00:01:13;;;;;;;;;;;21.80;91.70;;;;;;5013327;28;20404;-71
2022/06/24 00:03:38;;;;;;;;;;;21.60;92.00;;;;;;5014213;28;19921;-71
2022/06/24 00:06:11;;;;;;;;;;;21.60;92.90;;;;;;5013897;28;19944;-70
2022/06/24 00:08:46;;;;;;;;;;;21.60;92.90;;;;;;5029700;28;19926;-70
2022/06/24 00:11:12;;;;;;;;;;;21.70;92.70;;;;;;5029554;28;19925;-71
2022/06/24 00:13:38;;;;;;;;;;;21.80;92.30;;;;;;5014003;28;20008;-71
2022/06/24 00:16:04;;;;;;;;;;;21.70;94.20;;;;;;5014408;28;19944;-71
2022/06/24 00:18:30;;;;;;;;;;;21.50;95.70;;;;;;5029404;28;20476;-71
2022/06/24 00:20:55;;;;;;;;;;;21.40;96.40;;;;;;5014513;28;19961;-71
2022/06/24 00:23:21;;;;;;;;;;;21.40;97.40;;;;;;5014000;28;19925;-71
2022/06/24 00:25:47;;;;;;;;;;;21.30;97.60;;;;;;5029493;28;19922;-71
2022/06/24 00:28:13;;;;;;;;;;;21.10;98.10;;;;;;5014309;28;19925;-71
2022/06/24 00:30:42;;;;;;;;;;;21.00;98.60;;;;;;5014147;28;19971;-71
2022/06/24 00:33:22;;;;;;;;;;;21.00;99.20;;;;;;5012443;28;20115;-71
2022/06/24 00:35:48;;;;;;;;;;;20.90;99.60;;;;;;5012876;28;20012;-71
2022/06/24 00:38:28;;;;;;;;;;;20.90;99.90;;;;;;5014086;28;19926;-71
2022/06/24 00:40:56;;;;;;;;;;;20.70;99.90;;;;;;5012630;28;20401;-71
2022/06/24 00:43:44;;;;;;;;;;;20.80;99.90;;;;;;5013441;28;19976;-71
2022/06/24 00:46:10;;;;;;;;;;;20.90;99.90;;;;;;5006979;28;19929;-71
2022/06/24 00:48:38;;;;;;;;;;;20.90;99.00;;;;;;5012016;28;19925;-71
2022/06/24 00:51:04;;;;;;;;;;;20.90;98.80;;;;;;5011113;28;19928;-71
2022/06/24 00:53:29;;;;;;;;;;;20.90;99.10;;;;;;5013362;28;19925;-70
2022/06/24 00:55:55;;;;;;;;;;;20.80;99.90;;;;;;5028713;28;19928;-70
2022/06/24 00:58:21;;;;;;;;;;;20.70;99.90;;;;;;5013612;28;19983;-70
2022/06/24 01:00:47;;;;;;;;;;;20.40;99.90;;;;;;5013655;28;19926;-70
2022/06/24 01:03:14;;;;;;;;;;;20.30;99.90;;;;;;5011931;28;19921;-70
2022/06/24 01:05:40;;;;;;;;;;;20.30;99.90;;;;;;5012175;28;19930;-69
2022/06/24 01:08:07;;;;;;;;;;;20.10;99.90;;;;;;5028777;28;19921;-70
2022/06/24 01:10:32;;;;;;;;;;;20.20;99.90;;;;;;4996048;28;20003;-70
2022/06/24 01:12:58;;;;;;;;;;;20.10;99.90;;;;;;5028036;28;19921;-69
2022/06/24 01:15:23;;;;;;;;;;;20.00;99.90;;;;;;5013353;28;19941;-69
2022/06/24 01:17:50;;;;;;;;;;;19.90;99.90;;;;;;5028335;28;19995;-71
2022/06/24 01:20:16;;;;;;;;;;;19.90;99.90;;;;;;5028424;28;19922;-70
2022/06/24 01:22:41;;;;;;;;;;;19.80;99.90;;;;;;5011136;28;19995;-70
2022/06/24 01:25:07;;;;;;;;;;;19.80;99.90;;;;;;5011770;28;20390;-70
2022/06/24 01:27:32;;;;;;;;;;;19.80;99.90;;;;;;5013192;28;19980;-70
2022/06/24 01:29:58;;;;;;;;;;;19.90;99.90;;;;;;5013093;28;19925;-70
2022/06/24 01:32:23;;;;;;;;;;;19.80;99.90;;;;;;5028051;28;19921;-71
2022/06/24 01:34:49;;;;;;;;;;;19.70;99.90;;;;;;5012758;28;19932;-71
2022/06/24 01:37:15;;;;;;;;;;;19.70;99.90;;;;;;5012759;28;19925;-71
2022/06/24 01:39:40;;;;;;;;;;;19.60;99.90;;;;;;5012939;28;19943;-70
2022/06/24 01:42:06;;;;;;;;;;;19.60;99.90;;;;;;5012981;28;19925;-70
2022/06/24 01:44:32;;;;;;;;;;;19.60;99.90;;;;;;5027530;28;19922;-70
2022/06/24 01:46:57;;;;;;;;;;;19.60;99.90;;;;;;5011280;28;19999;-70
2022/06/24 01:49:23;;;;;;;;;;;19.80;99.90;;;;;;5012559;28;20353;-69
2022/06/24 01:51:50;;;;;;;;;;;19.90;99.90;;;;;;5011249;28;19925;-69
2022/06/24 01:54:16;;;;;;;;;;;19.90;99.90;;;;;;5012031;28;20592;-70
2022/06/24 01:56:41;;;;;;;;;;;19.90;99.90;;;;;;5012563;28;19925;-70
2022/06/24 01:59:07;;;;;;;;;;;19.90;99.90;;;;;;5012615;28;20413;-69
2022/06/24 02:01:32;;;;;;;;;;;19.80;99.90;;;;;;5011850;28;19992;-70
2022/06/24 02:03:58;;;;;;;;;;;19.70;99.90;;;;;;5010592;28;19921;-70
2022/06/24 02:06:23;;;;;;;;;;;19.60;99.90;;;;;;5012117;28;20266;-70
2022/06/24 02:08:49;;;;;;;;;;;19.60;99.90;;;;;;5012373;28;19921;-70
2022/06/24 02:13:59;;;;;;;;;;;19.40;99.90;;;;;;5011844;28;19941;-70
2022/06/24 02:16:26;;;;;;;;;;;19.30;99.90;;;;;;5027147;28;20021;-70
2022/06/24 02:18:51;;;;;;;;;;;19.30;99.90;;;;;;5011987;28;19933;-70
2022/06/24 02:21:17;;;;;;;;;;;19.30;99.90;;;;;;5027307;28;19925;-71
2022/06/24 02:23:43;;;;;;;;;;;19.30;99.90;;;;;;5011710;28;20254;-69
2022/06/24 02:26:09;;;;;;;;;;;19.30;99.90;;;;;;5012226;28;19928;-70
2022/06/24 02:28:34;;;;;;;;;;;19.30;99.90;;;;;;5011307;28;19952;-70
2022/06/24 02:31:00;;;;;;;;;;;19.30;99.90;;;;;;5027152;28;19968;-70
2022/06/24 02:33:27;;;;;;;;;;;19.50;99.90;;;;;;5011412;28;19932;-70
2022/06/24 02:35:52;;;;;;;;;;;19.60;99.90;;;;;;5011988;28;19928;-70
2022/06/24 02:38:18;;;;;;;;;;;19.70;99.90;;;;;;5011959;28;20008;-70
2022/06/24 02:40:49;;;;;;;;;;;19.70;99.90;;;;;;5011743;28;20033;-70
2022/06/24 02:43:16;;;;;;;;;;;19.80;99.90;;;;;;5010164;28;19921;-70
2022/06/24 02:45:43;;;;;;;;;;;19.60;99.90;;;;;;5010256;28;19925;-70
2022/06/24 02:48:08;;;;;;;;;;;19.60;99.90;;;;;;5026505;28;20277;-70
2022/06/24 02:50:37;;;;;;;;;;;19.40;99.90;;;;;;5010213;28;19921;-70
2022/06/24 02:53:03;;;;;;;;;;;19.50;99.90;;;;;;5026605;28;20164;-69
2022/06/24 02:55:28;;;;;;;;;;;19.30;99.90;;;;;;5010165;28;19925;-70
2022/06/24 02:57:54;;;;;;;;;;;19.40;99.90;;;;;;5011641;28;19925;-69
2022/06/24 03:00:19;;;;;;;;;;;19.30;99.90;;;;;;5011726;28;19973;-69
2022/06/24 03:02:45;;;;;;;;;;;19.50;99.90;;;;;;5009760;28;20409;-69
2022/06/24 03:05:10;;;;;;;;;;;19.60;99.90;;;;;;5009649;28;19926;-69
2022/06/24 03:07:36;;;;;;;;;;;19.70;99.90;;;;;;5009834;28;19932;-70
2022/06/24 03:10:02;;;;;;;;;;;19.70;99.90;;;;;;5009329;28;19932;-70
2022/06/24 03:12:27;;;;;;;;;;;19.80;99.90;;;;;;5023978;28;19933;-70
2022/06/24 03:14:53;;;;;;;;;;;19.70;99.90;;;;;;5006175;28;19921;-70
2022/06/24 03:17:18;;;;;;;;;;;19.80;99.90;;;;;;5008584;28;19948;-70
2022/06/24 03:19:44;;;;;;;;;;;19.80;99.90;;;;;;5010735;28;20338;-70
2022/06/24 03:22:09;;;;;;;;;;;19.80;99.90;;;;;;5010414;28;19941;-70
2022/06/24 03:24:35;;;;;;;;;;;19.70;99.90;;;;;;5010114;28;19949;-70
2022/06/24 03:27:00;;;;;;;;;;;19.80;99.90;;;;;;5011001;28;20349;-70
2022/06/24 03:29:26;;;;;;;;;;;19.80;99.90;;;;;;5009700;28;19926;-70
2022/06/24 03:31:51;;;;;;;;;;;19.90;99.90;;;;;;5026479;28;20278;-70
2022/06/24 03:34:17;;;;;;;;;;;19.80;99.90;;;;;;5025810;28;19921;-70
2022/06/24 03:36:42;;;;;;;;;;;19.90;99.90;;;;;;5026047;28;19953;-70
2022/06/24 03:39:07;;;;;;;;;;;20.00;99.90;;;;;;5025957;28;20369;-70
2022/06/24 03:41:33;;;;;;;;;;;20.00;99.90;;;;;;5009787;28;20301;-70
2022/06/24 03:43:59;;;;;;;;;;;19.90;99.90;;;;;;5010440;28;19925;-70
2022/06/24 03:46:25;;;;;;;;;;;19.80;99.90;;;;;;5026282;28;19994;-70
2022/06/24 03:48:50;;;;;;;;;;;19.80;99.90;;;;;;5009093;28;19945;-70
2022/06/24 03:51:16;;;;;;;;;;;19.70;99.90;;;;;;5010821;28;19925;-70
2022/06/24 03:53:41;;;;;;;;;;;19.60;99.90;;;;;;5010380;28;19968;-70
2022/06/24 03:56:08;;;;;;;;;;;19.60;99.90;;;;;;5009371;28;19928;-70
2022/06/24 03:58:34;;;;;;;;;;;19.70;99.90;;;;;;5009541;28;19922;-70
2022/06/24 04:01:01;;;;;;;;;;;19.80;99.90;;;;;;5008849;28;20327;-70
2022/06/24 04:03:27;;;;;;;;;;;19.80;99.90;;;;;;5009486;28;20305;-70
2022/06/24 04:05:52;;;;;;;;;;;19.90;99.90;;;;;;5025971;28;19921;-70
2022/06/24 04:08:18;;;;;;;;;;;19.90;99.90;;;;;;5010836;28;19932;-70
2022/06/24 04:10:43;;;;;;;;;;;20.10;99.90;;;;;;5009203;28;20000;-70
2022/06/24 04:13:10;;;;;;;;;;;20.00;99.90;;;;;;5009732;28;21470;-70
2022/06/24 04:15:36;;;;;;;;;;;19.90;99.90;;;;;;5010828;28;19925;-70
2022/06/24 04:18:01;;;;;;;;;;;20.00;99.90;;;;;;5009347;28;20372;-70
2022/06/24 04:20:27;;;;;;;;;;;20.10;99.90;;;;;;5009224;28;19921;-70
2022/06/24 04:22:52;;;;;;;;;;;20.10;99.90;;;;;;5008824;28;19991;-70
2022/06/24 04:25:18;;;;;;;;;;;20.20;99.90;;;;;;5012232;28;19921;-70
2022/06/24 04:27:44;;;;;;;;;;;20.20;99.90;;;;;;5012884;28;19983;-71
2022/06/24 04:30:10;;;;;;;;;;;20.40;99.90;;;;;;5012923;28;19937;-70
2022/06/24 04:32:36;;;;;;;;;;;20.40;99.90;;;;;;5013871;28;19944;-71
2022/06/24 04:35:01;;;;;;;;;;;20.60;99.90;;;;;;5012957;28;19925;-71
2022/06/24 04:37:27;;;;;;;;;;;20.70;99.90;;;;;;5013868;28;20482;-70
2022/06/24 04:39:52;;;;;;;;;;;20.70;99.90;;;;;;5013967;28;20289;-70
2022/06/24 04:42:18;;;;;;;;;;;20.80;99.90;;;;;;5013708;28;19925;-70
2022/06/24 04:44:43;;;;;;;;;;;20.80;99.90;;;;;;5014008;28;20004;-71
2022/06/24 04:47:09;;;;;;;;;;;20.90;99.90;;;;;;5012222;28;19926;-71
2022/06/24 04:49:34;;;;;;;;;;;20.90;99.90;;;;;;5013609;28;19925;-71
2022/06/24 04:52:00;;;;;;;;;;;20.90;99.90;;;;;;5012408;28;19922;-71
2022/06/24 04:54:25;;;;;;;;;;;21.00;99.90;;;;;;5013489;28;19921;-71
2022/06/24 04:56:51;;;;;;;;;;;21.00;99.90;;;;;;5012291;28;19988;-71
2022/06/24 04:59:16;;;;;;;;;;;21.10;99.90;;;;;;5013689;28;19925;-70
2022/06/24 05:01:42;;;;;;;;;;;21.20;99.90;;;;;;5013594;28;19925;-71
2022/06/24 05:04:07;;;;;;;;;;;21.20;99.90;;;;;;5013457;28;19922;-70
2022/06/24 05:06:33;;;;;;;;;;;21.30;99.90;;;;;;5013686;28;19922;-71
2022/06/24 05:08:58;;;;;;;;;;;21.20;99.90;;;;;;5013532;28;20032;-70
2022/06/24 05:11:24;;;;;;;;;;;21.10;99.90;;;;;;5013492;28;19928;-70
2022/06/24 05:13:50;;;;;;;;;;;21.20;99.90;;;;;;5011713;28;19922;-71
2022/06/24 05:16:16;;;;;;;;;;;21.20;99.90;;;;;;4995518;28;19925;-70
2022/06/24 05:18:42;;;;;;;;;;;21.20;99.90;;;;;;5012073;28;20274;-70
2022/06/24 05:21:07;;;;;;;;;;;21.10;99.90;;;;;;5028251;28;19922;-70
2022/06/24 05:23:33;;;;;;;;;;;21.00;99.90;;;;;;5012838;28;19921;-71
2022/06/24 05:25:58;;;;;;;;;;;21.00;99.90;;;;;;5013164;28;20396;-70
2022/06/24 05:28:24;;;;;;;;;;;21.10;99.90;;;;;;5011959;28;19921;-70
2022/06/24 05:30:54;;;;;;;;;;;21.00;99.90;;;;;;5013031;28;19928;-71
2022/06/24 05:33:19;;;;;;;;;;;21.00;99.90;;;;;;5011117;28;19922;-72
2022/06/24 05:35:45;;;;;;;;;;;20.90;99.90;;;;;;5028113;28;20404;-70
2022/06/24 05:38:10;;;;;;;;;;;20.90;99.90;;;;;;5012321;28;19979;-70
2022/06/24 05:40:36;;;;;;;;;;;20.80;99.90;;;;;;5028022;28;19932;-70
2022/06/24 05:43:01;;;;;;;;;;;20.70;99.90;;;;;;5012443;28;20392;-71
2022/06/24 05:45:26;;;;;;;;;;;20.60;99.90;;;;;;5011468;28;19984;-71
2022/06/24 05:47:52;;;;;;;;;;;20.50;99.90;;;;;;5027749;28;19921;-71
2022/06/24 05:50:17;;;;;;;;;;;20.40;99.90;;;;;;5012663;28;20016;-70
2022/06/24 05:55:27;;;;;;;;;;;20.40;99.90;;;;;;5012555;28;19922;-72
2022/06/24 05:57:53;;;;;;;;;;;20.50;99.90;;;;;;5027634;28;20020;-72
2022/06/24 06:00:18;;;;;;;;;;;20.60;99.90;;;;;;5027708;28;19948;-72
2022/06/24 06:02:44;;;;;;;;;;;20.60;99.90;;;;;;5010909;28;19968;-71
2022/06/24 06:05:12;;;;;;;;;;;20.50;99.90;;;;;;5012610;28;19975;-71
2022/06/24 06:07:38;;;;;;;;;;;20.60;99.90;;;;;;5012490;28;19925;-72
2022/06/24 06:10:03;;;;;;;;;;;20.50;99.90;;;;;;5012262;28;20008;-72
2022/06/24 06:12:29;;;;;;;;;;;20.60;99.90;;;;;;5010352;28;20278;-72
2022/06/24 06:14:54;;;;;;;;;;;20.60;99.90;;;;;;5011110;28;19928;-72
2022/06/24 06:17:20;;;;;;;;;;;20.60;99.90;;;;;;5012298;28;19925;-72
2022/06/24 06:19:45;;;;;;;;;;;20.60;99.90;;;;;;5012218;28;19922;-72
2022/06/24 06:22:11;;;;;;;;;;;20.70;99.90;;;;;;5026967;28;20012;-71
2022/06/24 06:24:36;;;;;;;;;;;20.70;99.90;;;;;;5010562;28;19925;-71
2022/06/24 06:27:02;;;;;;;;;;;20.60;99.90;;;;;;5010832;28;20261;-71
2022/06/24 06:29:27;;;;;;;;;;;20.60;99.90;;;;;;5012177;28;19922;-71
2022/06/24 06:31:53;;;;;;;;;;;20.60;99.90;;;;;;5012089;28;19921;-71
2022/06/24 06:34:19;;;;;;;;;;;20.60;99.90;;;;;;5010419;28;20300;-71
2022/06/24 06:36:45;;;;;;;;;;;20.60;99.90;;;;;;5011714;28;19932;-70
2022/06/24 06:39:10;;;;;;;;;;;20.60;99.90;;;;;;5011544;28;20470;-70
2022/06/24 06:41:35;;;;;;;;;;;20.70;99.90;;;;;;5026949;28;19932;-72
2022/06/24 06:44:01;;;;;;;;;;;20.60;99.90;;;;;;5011497;28;20004;-73
2022/06/24 06:46:26;;;;;;;;;;;20.60;99.90;;;;;;5026790;28;20243;-73
2022/06/24 06:48:52;;;;;;;;;;;20.60;99.90;;;;;;5027192;28;19921;-73
2022/06/24 06:51:17;;;;;;;;;;;20.40;99.90;;;;;;5010751;28;19971;-73
2022/06/24 06:53:43;;;;;;;;;;;20.40;99.90;;;;;;5009951;28;20417;-74
2022/06/24 06:56:08;;;;;;;;;;;20.40;99.90;;;;;;5010849;28;19972;-74
2022/06/24 06:58:34;;;;;;;;;;;20.50;99.90;;;;;;5013317;28;20012;-74
2022/06/24 07:00:59;;;;;;;;;;;20.50;99.90;;;;;;5012041;28;19921;-73
2022/06/24 07:03:25;;;;;;;;;;;20.50;99.90;;;;;;5028460;28;19971;-74
2022/06/24 07:05:50;;;;;;;;;;;20.40;99.90;;;;;;4995410;28;19925;-74
2022/06/24 07:08:16;;;;;;;;;;;20.50;99.90;;;;;;5010716;28;19926;-74
2022/06/24 07:10:42;;;;;;;;;;;20.50;99.90;;;;;;4994649;28;19932;-75
2022/06/24 07:13:08;;;;;;;;;;;20.50;99.90;;;;;;5032044;28;19926;-75
2022/06/24 07:15:34;;;;;;;;;;;20.40;99.90;;;;;;5000465;28;19925;-76
2022/06/24 07:17:59;;;;;;;;;;;20.50;99.90;;;;;;5013034;28;19925;-76
2022/06/24 07:20:25;;;;;;;;;;;20.50;99.90;;;;;;5028090;28;19944;-76
2022/06/24 07:22:50;;;;;;;;;;;20.50;99.90;;;;;;5010897;28;19929;-76
2022/06/24 07:25:16;;;;;;;;;;;20.60;99.90;;;;;;5012400;28;19932;-76
2022/06/24 07:27:41;;;;;;;;;;;20.60;99.90;;;;;;5027044;28;20024;-76
2022/06/24 07:30:07;;;;;;;;;;;20.60;99.90;;;;;;5026826;28;20547;-76
2022/06/24 07:32:33;;;;;;;;;;;20.50;99.90;;;;;;5009956;28;19929;-75
2022/06/24 07:34:58;;;;;;;;;;;20.60;99.90;;;;;;5016482;28;19926;-76
2022/06/24 07:37:24;;;;;;;;;;;20.60;99.90;;;;;;5001774;28;19926;-76
2022/06/24 07:39:49;;;;;;;;;;;20.50;99.90;;;;;;5010329;28;19922;-76
2022/06/24 07:42:15;;;;;;;;;;;20.40;99.90;;;;;;5011048;28;19921;-76
2022/06/24 07:44:43;;;;;;;;;;;20.40;99.90;;;;;;5011678;28;20399;-76
2022/06/24 07:47:11;;;;;;;;;;;20.40;99.90;;;;;;5010774;28;19998;-77
2022/06/24 07:49:37;;;;;;;;;;;20.30;99.90;;;;;;5012414;28;19925;-75
2022/06/24 07:52:04;;;;;;;;;;;20.30;99.90;;;;;;5010779;28;19932;-75
2022/06/24 07:54:29;;;;;;;;;;;20.40;99.90;;;;;;5026796;28;19932;-75
2022/06/24 07:56:58;;;;;;;;;;;20.50;99.90;;;;;;4994699;28;20338;-75
2022/06/24 07:59:33;;;;;;;;;;;20.50;99.90;;;;;;4998652;28;19985;-76
2022/06/24 08:01:59;;;;;;;;;;;20.50;99.90;;;;;;5035234;28;20424;-76
2022/06/24 08:04:26;;;;;;;;;;;20.40;99.90;;;;;;5014331;28;19922;-76
2022/06/24 08:06:52;;;;;;;;;;;20.40;99.90;;;;;;5030665;28;19926;-76
2022/06/24 08:09:19;;;;;;;;;;;20.40;99.90;;;;;;4997810;28;19925;-75
2022/06/24 08:11:45;;;;;;;;;;;20.50;99.90;;;;;;5030530;28;19984;-75
2022/06/24 08:14:10;;;;;;;;;;;20.50;99.90;;;;;;5013203;28;20309;-75
2022/06/24 08:16:36;;;;;;;;;;;20.50;99.90;;;;;;5013583;28;19929;-75
2022/06/24 08:19:02;;;;;;;;;;;20.50;99.90;;;;;;5032150;28;19928;-76
2022/06/24 08:21:27;;;;;;;;;;;20.50;99.90;;;;;;5032599;28;19965;-76
2022/06/24 08:23:53;;;;;;;;;;;20.50;99.90;;;;;;5020493;28;19991;-76
2022/06/24 08:26:19;;;;;;;;;;;20.50;99.90;;;;;;5016736;28;19926;-76
2022/06/24 08:28:44;;;;;;;;;;;20.50;99.90;;;;;;5031230;28;19929;-75
2022/06/24 08:31:10;;;;;;;;;;;20.40;99.90;;;;;;5031085;28;20030;-75
2022/06/24 08:33:36;;;;;;;;;;;20.50;99.90;;;;;;5030139;28;19921;-75
2022/06/24 08:36:01;;;;;;;;;;;20.50;99.90;;;;;;5030410;28;19936;-76
2022/06/24 08:38:27;;;;;;;;;;;20.50;99.90;;;;;;5014300;28;20452;-75
2022/06/24 08:40:53;;;;;;;;;;;20.60;99.90;;;;;;5015176;28;19921;-76
2022/06/24 08:43:20;;;;;;;;;;;20.50;99.90;;;;;;5014170;28;19941;-76
2022/06/24 08:45:46;;;;;;;;;;;20.50;99.90;;;;;;5029429;28;19928;-76
2022/06/24 08:48:12;;;;;;;;;;;20.40;99.90;;;;;;5012600;28;19925;-76
2022/06/24 08:50:37;;;;;;;;;;;20.50;99.90;;;;;;5013133;28;19922;-76
2022/06/24 08:53:07;;;;;;;;;;;20.40;99.90;;;;;;5013898;28;19922;-74
2022/06/24 08:55:36;;;;;;;;;;;20.40;99.90;;;;;;5014283;28;19921;-77
2022/06/24 08:58:06;;;;;;;;;;;20.30;99.90;;;;;;5028909;28;20282;-77
2022/06/24 09:00:31;;;;;;;;;;;20.40;99.90;;;;;;5012732;28;19926;-76
2022/06/24 09:02:57;;;;;;;;;;;20.30;99.90;;;;;;5013761;28;19922;-77
2022/06/24 09:05:25;;;;;;;;;;;20.30;99.90;;;;;;5012748;28;20334;-77
2022/06/24 09:07:56;;;;;;;;;;;20.40;99.90;;;;;;5013855;28;19945;-78
2022/06/24 09:10:22;;;;;;;;;;;20.30;99.90;;;;;;5013809;28;19925;-76
2022/06/24 09:12:50;;;;;;;;;;;20.30;99.90;;;;;;5010913;28;19929;-76
2022/06/24 09:15:16;;;;;;;;;;;20.40;99.90;;;;;;5028974;28;19925;-76
2022/06/24 09:17:42;;;;;;;;;;;20.40;99.90;;;;;;5012285;28;19947;-75
2022/06/24 09:20:08;;;;;;;;;;;20.40;99.90;;;;;;5014069;28;19927;-76
2022/06/24 09:22:34;;;;;;;;;;;20.40;99.90;;;;;;5028321;28;20386;-77
2022/06/24 09:25:01;;;;;;;;;;;20.40;99.90;;;;;;5013204;28;19941;-76
2022/06/24 09:27:27;;;;;;;;;;;20.30;99.90;;;;;;4996098;28;19933;-77
2022/06/24 09:29:52;;;;;;;;;;;20.30;99.90;;;;;;5013090;28;20321;-75
2022/06/24 09:32:18;;;;;;;;;;;20.20;99.90;;;;;;5028643;28;20397;-74
2022/06/24 09:35:02;;;;;;;;;;;20.10;99.90;;;;;;5011635;28;20029;-76
2022/06/24 09:37:44;;;;;;;;;;;20.10;99.90;;;;;;5028056;28;20448;-75
2022/06/24 09:40:16;;;;;;;;;;;20.10;99.90;;;;;;5028119;28;20385;-73
2022/06/24 09:42:41;;;;;;;;;;;20.00;99.90;;;;;;5012628;28;19925;-75
2022/06/24 09:45:07;;;;;;;;;;;19.90;99.90;;;;;;5012928;28;19928;-74
2022/06/24 09:47:39;;;;;;;;;;;19.90;99.90;;;;;;5012793;28;20297;-74
2022/06/24 09:50:05;;;;;;;;;;;19.90;99.90;;;;;;5027773;28;19922;-75
2022/06/24 09:52:31;;;;;;;;;;;19.90;99.90;;;;;;5012630;28;19921;-74
2022/06/24 09:54:57;;;;;;;;;;;19.90;99.90;;;;;;5012908;28;20008;-75
2022/06/24 09:57:22;;;;;;;;;;;19.70;99.90;;;;;;5012798;28;19980;-76
2022/06/24 10:02:34;;;;;;;;;;;19.50;99.90;;;;;;5012272;28;19964;-77
2022/06/24 10:05:01;;;;;;;;;;;19.50;99.90;;;;;;5012655;28;19922;-76
2022/06/24 10:07:30;;;;;;;;;;;19.50;99.90;;;;;;5012710;28;20030;-76
2022/06/24 10:09:55;;;;;;;;;;;19.40;99.90;;;;;;5012553;28;20008;-76
2022/06/24 10:12:21;;;;;;;;;;;19.40;99.90;;;;;;5027536;28;20453;-77
2022/06/24 10:14:47;;;;;;;;;;;19.50;99.90;;;;;;5011065;28;19925;-72
2022/06/24 10:17:14;;;;;;;;;;;19.40;99.90;;;;;;5012274;28;19937;-73
2022/06/24 10:19:40;;;;;;;;;;;19.40;99.90;;;;;;5027386;28;19925;-73
2022/06/24 10:22:05;;;;;;;;;;;19.40;99.90;;;;;;5012308;28;20298;-73
2022/06/24 10:24:44;;;;;;;;;;;19.40;99.90;;;;;;5026756;28;19925;-71
2022/06/24 10:27:09;;;;;;;;;;;19.40;99.90;;;;;;5012058;28;19926;-72
2022/06/24 10:29:36;;;;;;;;;;;19.40;99.90;;;;;;5010661;28;19921;-73
2022/06/24 10:32:03;;;;;;;;;;;19.40;99.90;;;;;;5012314;28;19925;-73
2022/06/24 10:34:33;;;;;;;;;;;19.30;99.90;;;;;;5026938;28;19933;-74
2022/06/24 10:37:00;;;;;;;;;;;19.40;99.90;;;;;;5012053;28;19925;-74
2022/06/24 10:39:29;;;;;;;;;;;19.30;99.90;;;;;;5011964;28;20012;-72
2022/06/24 10:42:01;;;;;;;;;;;19.30;99.90;;;;;;5010715;28;19928;-72
2022/06/24 10:44:28;;;;;;;;;;;19.30;99.90;;;;;;5011749;28;19937;-72
2022/06/24 10:47:10;;;;;;;;;;;19.40;99.90;;;;;;5026932;28;19922;-71
2022/06/24 10:49:51;;;;;;;;;;;19.40;99.90;;;;;;5026835;28;19928;-72
2022/06/24 10:52:33;;;;;;;;;;;19.40;99.90;;;;;;5026583;28;20024;-72
2022/06/24 10:55:17;;;;;;;;;;;19.40;99.90;;;;;;5011778;28;19922;-73
2022/06/24 10:57:45;;;;;;;;;;;19.40;99.90;;;;;;5011536;28;20421;-73
2022/06/24 11:00:12;;;;;;;;;;;19.40;99.90;;;;;;5011687;28;20000;-73
2022/06/24 11:02:37;;;;;;;;;;;19.40;99.90;;;;;;5011116;28;19925;-76
2022/06/24 11:05:05;;;;;;;;;;;19.50;99.90;;;;;;5010408;28;20009;-76
2022/06/24 11:07:31;;;;;;;;;;;19.40;99.90;;;;;;5010358;28;20024;-76
2022/06/24 11:09:56;;;;;;;;;;;19.50;99.90;;;;;;5010233;28;20019;-76
2022/06/24 11:12:27;;;;;;;;;;;19.60;99.90;;;;;;5009549;28;20456;-76
2022/06/24 11:14:52;;;;;;;;;;;19.60;99.90;;;;;;5026636;28;20390;-76
2022/06/24 11:17:19;;;;;;;;;;;19.70;99.90;;;;;;5011064;28;20137;-76
2022/06/24 11:19:45;;;;;;;;;;;19.80;99.90;;;;;;5011240;28;20016;-75
2022/06/24 11:22:10;;;;;;;;;;;19.80;99.90;;;;;;5011301;28;20024;-75
2022/06/24 11:24:36;;;;;;;;;;;19.90;99.90;;;;;;5011074;28;19925;-77
2022/06/24 11:27:08;;;;;;;;;;;20.00;99.90;;;;;;5026446;28;19968;-77
2022/06/24 11:29:53;;;;;;;;;;;20.10;99.90;;;;;;5026366;28;19971;-77
2022/06/24 11:32:19;;;;;;;;;;;20.20;99.90;;;;;;5009585;28;20409;-75
2022/06/24 11:34:45;;;;;;;;;;;20.20;99.90;;;;;;4992671;28;19972;-76
2022/06/24 11:37:11;;;;;;;;;;;20.30;99.90;;;;;;5026371;28;19925;-76
2022/06/24 11:39:37;;;;;;;;;;;20.40;99.90;;;;;;5011194;28;19929;-76
2022/06/24 11:42:02;;;;;;;;;;;20.30;99.90;;;;;;5011194;28;20356;-76
2022/06/24 11:44:32;;;;;;;;;;;20.40;99.90;;;;;;5010820;28;19922;-76
2022/06/24 11:46:57;;;;;;;;;;;20.20;99.90;;;;;;5026486;28;20432;-76
2022/06/24 11:49:23;;;;;;;;;;;20.20;99.90;;;;;;5011377;28;20011;-76
2022/06/24 11:51:49;;;;;;;;;;;20.30;99.90;;;;;;5009967;28;19925;-76
2022/06/24 11:54:14;;;;;;;;;;;20.40;99.90;;;;;;5025665;28;20125;-75
2022/06/24 11:56:40;;;;;;;;;;;20.40;99.90;;;;;;5009377;28;19929;-75
2022/06/24 11:59:07;;;;;;;;;;;20.50;99.90;;;;;;4993997;28;19922;-76
2022/06/24 12:01:32;;;;;;;;;;;20.50;99.90;;;;;;5026712;28;20334;-75
2022/06/24 12:03:59;;;;;;;;;;;20.60;99.90;;;;;;5011034;28;19932;-75
2022/06/24 12:06:25;;;;;;;;;;;20.50;99.90;;;;;;5007960;28;20339;-75
2022/06/24 12:08:51;;;;;;;;;;;20.60;99.90;;;;;;5009087;28;19929;-75
2022/06/24 12:11:17;;;;;;;;;;;20.70;99.90;;;;;;5026382;28;19925;-75
2022/06/24 12:13:54;;;;;;;;;;;20.60;99.90;;;;;;5009154;28;19921;-76
2022/06/24 12:16:19;;;;;;;;;;;20.60;99.90;;;;;;5009437;28;19964;-76
2022/06/24 12:18:45;;;;;;;;;;;20.70;99.90;;;;;;5009661;28;19980;-75
2022/06/24 12:21:10;;;;;;;;;;;20.70;99.90;;;;;;5025837;28;19921;-75
2022/06/24 12:23:37;;;;;;;;;;;20.70;99.90;;;;;;5009074;28;19928;-74
2022/06/24 12:26:06;;;;;;;;;;;20.70;99.90;;;;;;5009413;28;20016;-75
2022/06/24 12:28:32;;;;;;;;;;;20.70;99.90;;;;;;5010550;28;20560;-75
2022/06/24 12:31:00;;;;;;;;;;;20.70;99.90;;;;;;5010665;28;19928;-74
2022/06/24 12:33:26;;;;;;;;;;;20.70;99.90;;;;;;5008988;28;19926;-74
2022/06/24 12:36:05;;;;;;;;;;;20.80;99.90;;;;;;5010166;28;19925;-75
2022/06/24 12:38:30;;;;;;;;;;;20.90;99.90;;;;;;5015714;28;19925;-74
2022/06/24 12:41:09;;;;;;;;;;;20.90;99.90;;;;;;5028613;28;19944;-74
2022/06/24 12:43:35;;;;;;;;;;;21.00;99.90;;;;;;5028233;28;20369;-74
2022/06/24 12:46:04;;;;;;;;;;;21.10;99.90;;;;;;5029698;28;19921;-74
2022/06/24 12:51:14;;;;;;;;;;;21.00;99.90;;;;;;5032195;28;20472;-75
2022/06/24 12:53:46;;;;;;;;;;;21.20;99.90;;;;;;5031909;28;19928;-74
2022/06/24 12:56:12;;;;;;;;;;;21.20;99.90;;;;;;5021916;28;19932;-74
2022/06/24 12:58:37;;;;;;;;;;;21.30;99.90;;;;;;5013496;28;20020;-73
2022/06/24 13:01:03;;;;;;;;;;;21.50;99.90;;;;;;5013387;28;20328;-74
2022/06/24 13:03:28;;;;;;;;;;;21.50;99.90;;;;;;5013242;28;19936;-74
2022/06/24 13:05:53;;;;;;;;;;;21.50;99.90;;;;;;5012389;28;19922;-73
2022/06/24 13:08:20;;;;;;;;;;;21.70;99.90;;;;;;5012044;28;19959;-73
2022/06/24 13:10:45;;;;;;;;;;;21.80;99.90;;;;;;5012074;28;19996;-73
2022/06/24 13:13:11;;;;;;;;;;;21.80;99.90;;;;;;5013028;28;20012;-74
2022/06/24 13:15:37;;;;;;;;;;;21.70;99.90;;;;;;5012016;28;19989;-74
2022/06/24 13:18:03;;;;;;;;;;;21.80;99.90;;;;;;5013139;28;20334;-73
2022/06/24 13:20:28;;;;;;;;;;;21.90;99.90;;;;;;5013331;28;20035;-74
2022/06/24 13:22:54;;;;;;;;;;;21.90;99.90;;;;;;5028462;28;20083;-73
2022/06/24 13:25:19;;;;;;;;;;;22.00;99.90;;;;;;5028503;28;19921;-73
2022/06/24 13:27:45;;;;;;;;;;;22.00;99.90;;;;;;5012246;28;20016;-73
2022/06/24 13:30:11;;;;;;;;;;;21.90;99.90;;;;;;5013222;28;19921;-73
2022/06/24 13:32:36;;;;;;;;;;;22.00;99.90;;;;;;5011451;28;19932;-73
2022/06/24 13:35:02;;;;;;;;;;;22.10;99.90;;;;;;5020753;28;19921;-73
2022/06/24 13:37:28;;;;;;;;;;;22.10;99.90;;;;;;5032888;28;19940;-73
2022/06/24 13:39:53;;;;;;;;;;;21.90;99.90;;;;;;5031433;28;20008;-73
2022/06/24 13:42:19;;;;;;;;;;;22.10;99.90;;;;;;5016908;28;19921;-73
2022/06/24 13:44:45;;;;;;;;;;;22.00;99.90;;;;;;5015504;28;19921;-73
2022/06/24 13:47:10;;;;;;;;;;;22.10;99.90;;;;;;5027865;28;20029;-73
2022/06/24 13:49:36;;;;;;;;;;;22.20;99.90;;;;;;5028024;28;19930;-73
2022/06/24 13:52:01;;;;;;;;;;;22.30;99.90;;;;;;5012915;28;20070;-73
2022/06/24 13:54:27;;;;;;;;;;;22.20;99.90;;;;;;5027605;28;19980;-73
2022/06/24 13:56:52;;;;;;;;;;;22.20;99.90;;;;;;4992271;28;19925;-73
2022/06/24 13:59:18;;;;;;;;;;;22.20;99.90;;;;;;4991447;28;19926;-73
2022/06/24 14:01:43;;;;;;;;;;;22.20;99.90;;;;;;4993358;28;19922;-73
2022/06/24 14:04:09;;;;;;;;;;;22.30;99.90;;;;;;5008177;28;19928;-71
2022/06/24 14:06:35;;;;;;;;;;;22.40;99.90;;;;;;4994439;28;20009;-74
2022/06/24 14:09:00;;;;;;;;;;;22.50;99.90;;;;;;5019409;28;19922;-74
2022/06/24 14:11:26;;;;;;;;;;;22.50;99.90;;;;;;4995966;28;19921;-74
2022/06/24 14:13:52;;;;;;;;;;;22.60;99.90;;;;;;4993926;28;19926;-73
2022/06/24 14:16:17;;;;;;;;;;;22.70;99.90;;;;;;4991987;28;20341;-74
2022/06/24 14:18:43;;;;;;;;;;;22.70;99.90;;;;;;4991787;28;20445;-74
2022/06/24 14:21:08;;;;;;;;;;;22.70;99.90;;;;;;5008468;28;19926;-74
2022/06/24 14:26:20;;;;;;;;;;;22.70;99.90;;;;;;4991875;28;20145;-74